createdAt,value
2022-11-09T00:01:12.930Z,88.92
2022-11-09T00:03:45.812Z,89.91
2022-11-09T00:06:18.275Z,90.01
2022-11-09T00:08:51.491Z,90.15
2022-11-09T00:11:24.247Z,90.39
2022-11-09T00:13:56.726Z,90.60
2022-11-09T00:16:29.966Z,90.12
2022-11-09T00:19:02.413Z,89.17
2022-11-09T00:21:35.038Z,89.34
2022-11-09T00:24:07.565Z,88.89
2022-11-09T00:26:40.021Z,89.62
2022-11-09T00:29:12.414Z,89.64
2022-11-09T00:31:45.525Z,89.72
2022-11-09T00:34:20.718Z,90.05
2022-11-09T00:36:53.062Z,90.80
2022-11-09T00:39:25.498Z,90.98
2022-11-09T00:41:57.836Z,90.28
2022-11-09T00:44:30.220Z,90.18
2022-11-09T00:47:03.389Z,90.38
2022-11-09T00:49:35.734Z,90.46
2022-11-09T00:52:08.444Z,90.53
2022-11-09T00:54:41.108Z,90.23
2022-11-09T00:57:13.577Z,89.98
2022-11-09T00:59:49.378Z,89.72
2022-11-09T01:02:22.501Z,89.20
2022-11-09T01:04:55.017Z,89.30
2022-11-09T01:07:27.388Z,89.50
2022-11-09T01:09:59.783Z,89.96
2022-11-09T01:12:32.738Z,88.92
2022-11-09T01:15:06.161Z,89.38
2022-11-09T01:17:40.327Z,90.18
2022-11-09T01:20:13.060Z,89.91
2022-11-09T01:22:45.449Z,89.92
2022-11-09T01:25:17.856Z,90.29
2022-11-09T01:27:50.228Z,90.51
2022-11-09T01:30:22.707Z,90.41
2022-11-09T01:32:55.811Z,90.26
2022-11-09T01:35:28.262Z,90.29
2022-11-09T01:38:01.671Z,90.03
2022-11-09T01:40:36.409Z,90.28
2022-11-09T01:43:16.185Z,90.32
2022-11-09T01:45:51.859Z,91.98
2022-11-09T01:48:34.407Z,91.42
2022-11-09T01:51:13.332Z,91.47
2022-11-09T01:53:49.385Z,90.85
2022-11-09T01:56:22.133Z,90.48
2022-11-09T01:58:57.712Z,91.14
2022-11-09T02:01:31.555Z,90.96
2022-11-09T02:04:09.911Z,90.50
2022-11-09T02:06:43.242Z,91.25
2022-11-09T02:09:23.124Z,90.79
2022-11-09T02:11:55.601Z,90.05
2022-11-09T02:14:29.872Z,90.88
2022-11-09T02:17:02.698Z,90.86
2022-11-09T02:19:36.393Z,90.88
2022-11-09T02:22:10.318Z,90.87
2022-11-09T02:24:42.812Z,90.73
2022-11-09T02:27:15.196Z,90.49
2022-11-09T02:29:49.067Z,91.33
2022-11-09T02:32:24.288Z,91.10
2022-11-09T02:34:58.547Z,91.56
2022-11-09T02:37:37.670Z,91.27
2022-11-09T02:40:14.348Z,92.19
2022-11-09T02:42:46.900Z,92.52
2022-11-09T02:45:19.314Z,93.41
2022-11-09T02:47:51.750Z,93.85
2022-11-09T02:50:24.382Z,94.18
2022-11-09T02:52:57.472Z,95.00
2022-11-09T02:55:32.813Z,95.17
2022-11-09T02:58:05.360Z,95.83
2022-11-09T03:00:37.961Z,95.18
2022-11-09T03:03:11.116Z,95.46
2022-11-09T03:05:43.804Z,95.09
2022-11-09T03:08:17.978Z,94.01
2022-11-09T03:10:51.486Z,94.04
2022-11-09T03:13:23.957Z,93.14
2022-11-09T03:15:56.466Z,93.91
2022-11-09T03:18:28.884Z,92.73
2022-11-09T03:21:02.557Z,92.59
2022-11-09T03:23:35.941Z,92.06
2022-11-09T03:26:08.748Z,92.31
2022-11-09T03:28:42.214Z,93.67
2022-11-09T03:31:14.819Z,93.11
2022-11-09T03:33:47.374Z,92.82
2022-11-09T03:36:20.472Z,93.00
2022-11-09T03:38:53.554Z,93.06
2022-11-09T03:41:26.133Z,93.15
2022-11-09T03:43:58.510Z,93.38
2022-11-09T03:46:30.959Z,93.00
2022-11-09T03:49:03.401Z,92.74
2022-11-09T03:51:35.877Z,92.63
2022-11-09T03:54:09.225Z,92.63
2022-11-09T03:56:41.562Z,92.85
2022-11-09T03:59:13.957Z,92.22
2022-11-09T04:01:46.399Z,92.29
2022-11-09T04:04:18.904Z,91.61
2022-11-09T04:06:51.300Z,92.16
2022-11-09T04:09:24.409Z,92.28
2022-11-09T04:11:56.766Z,92.67
2022-11-09T04:14:29.174Z,92.43
2022-11-09T04:17:01.541Z,91.73
2022-11-09T04:19:34.195Z,92.51
2022-11-09T04:22:06.807Z,92.89
2022-11-09T04:24:39.917Z,92.50
2022-11-09T04:27:12.329Z,92.99
2022-11-09T04:29:44.777Z,92.85
2022-11-09T04:32:17.479Z,93.22
2022-11-09T04:34:49.849Z,93.02
2022-11-09T04:37:22.204Z,92.76
2022-11-09T04:39:55.231Z,92.82
2022-11-09T04:42:27.593Z,92.76
2022-11-09T04:44:59.974Z,92.58
2022-11-09T04:47:32.785Z,92.94
2022-11-09T04:50:06.524Z,92.63
2022-11-09T04:52:39.005Z,93.55
2022-11-09T04:55:12.052Z,93.44
2022-11-09T04:57:44.426Z,93.74
2022-11-09T05:00:17.049Z,94.52
2022-11-09T05:02:49.411Z,95.12
2022-11-09T05:05:21.790Z,96.33
2022-11-09T05:07:54.137Z,96.67
2022-11-09T05:10:27.265Z,95.95
2022-11-09T05:13:01.466Z,96.83
2022-11-09T05:15:35.005Z,96.58
2022-11-09T05:18:08.093Z,97.32
2022-11-09T05:20:40.501Z,98.56
2022-11-09T05:23:31.098Z,98.80
2022-11-09T05:26:04.248Z,99.38
2022-11-09T05:28:36.741Z,99.14
2022-11-09T05:31:09.123Z,99.34
2022-11-09T05:33:41.487Z,98.87
2022-11-09T05:36:13.852Z,98.46
2022-11-09T05:38:46.753Z,98.59
2022-11-09T05:41:19.801Z,99.03
2022-11-09T05:43:52.270Z,98.63
2022-11-09T05:46:25.587Z,98.26
2022-11-09T05:48:57.923Z,97.61
2022-11-09T05:51:30.282Z,97.76
2022-11-09T05:54:02.814Z,97.63
2022-11-09T05:56:35.897Z,97.18
2022-11-09T05:59:08.484Z,97.60
2022-11-09T06:01:41.165Z,97.42
2022-11-09T06:04:13.577Z,96.81
2022-11-09T06:06:46.116Z,97.04
2022-11-09T06:09:18.504Z,97.14
2022-11-09T06:11:52.051Z,97.28
2022-11-09T06:14:24.699Z,98.11
2022-11-09T06:16:57.078Z,97.79
2022-11-09T06:19:29.448Z,98.08
2022-11-09T06:22:01.898Z,98.04
2022-11-09T06:24:35.062Z,98.64
2022-11-09T06:27:08.273Z,98.71
2022-11-09T06:29:40.690Z,98.57
2022-11-09T06:32:13.075Z,98.67
2022-11-09T06:34:47.625Z,99.37
2022-11-09T06:37:20.005Z,99.35
2022-11-09T06:39:52.453Z,99.84
2022-11-09T06:42:25.650Z,100.00
2022-11-09T06:44:58.071Z,100.00
2022-11-09T06:47:30.472Z,100.00
2022-11-09T06:50:02.973Z,100.00
2022-11-09T06:52:35.439Z,100.00
2022-11-09T06:55:09.250Z,100.00
2022-11-09T06:57:42.319Z,100.00
2022-11-09T07:00:16.137Z,100.00
2022-11-09T07:02:48.636Z,100.00
2022-11-09T07:05:21.067Z,100.00
2022-11-09T07:07:53.496Z,100.00
2022-11-09T07:10:25.964Z,100.00
2022-11-09T07:12:59.160Z,100.00
2022-11-09T07:15:31.985Z,100.00
2022-11-09T07:18:07.315Z,100.00
2022-11-09T07:20:39.821Z,100.00
2022-11-09T07:23:12.224Z,100.00
2022-11-09T07:25:44.642Z,100.00
2022-11-09T07:28:17.778Z,100.00
2022-11-09T07:30:52.306Z,100.00
2022-11-09T07:33:25.209Z,100.00
2022-11-09T07:35:58.825Z,100.00
2022-11-09T07:38:31.682Z,100.00
2022-11-09T07:41:04.222Z,100.00
2022-11-09T07:43:37.314Z,100.00
2022-11-09T07:46:10.702Z,100.00
2022-11-09T07:48:43.086Z,99.62
2022-11-09T07:51:15.423Z,99.35
2022-11-09T07:53:47.847Z,98.96
2022-11-09T07:56:20.345Z,98.10
2022-11-09T07:58:54.093Z,97.35
2022-11-09T08:01:26.595Z,97.55
2022-11-09T08:03:58.922Z,96.75
2022-11-09T08:06:31.360Z,96.73
2022-11-09T08:09:03.877Z,97.15
2022-11-09T08:11:36.290Z,95.92
2022-11-09T08:14:09.883Z,94.88
2022-11-09T08:16:42.414Z,95.43
2022-11-09T08:19:14.980Z,94.72
2022-11-09T08:21:47.355Z,93.65
2022-11-09T08:24:19.733Z,94.34
2022-11-09T08:26:52.088Z,93.28
2022-11-09T08:29:25.120Z,92.93
2022-11-09T08:31:57.515Z,91.80
2022-11-09T08:34:29.921Z,89.88
2022-11-09T08:37:04.724Z,88.21
2022-11-09T08:39:37.110Z,88.85
2022-11-09T08:42:09.458Z,88.54
2022-11-09T08:44:42.687Z,88.23
2022-11-09T08:47:15.049Z,87.44
2022-11-09T08:49:47.723Z,86.81
2022-11-09T08:52:20.150Z,85.45
2022-11-09T08:54:52.537Z,83.98
2022-11-09T08:57:25.128Z,83.36
2022-11-09T08:59:58.287Z,82.91
2022-11-09T09:02:30.687Z,81.58
2022-11-09T09:05:03.403Z,81.00
2022-11-09T09:07:35.785Z,79.45
2022-11-09T09:10:08.574Z,79.15
2022-11-09T09:12:40.915Z,78.90
2022-11-09T09:15:13.979Z,76.15
2022-11-09T09:17:46.484Z,75.95
2022-11-09T09:20:19.008Z,76.17
2022-11-09T09:22:51.383Z,74.72
2022-11-09T09:25:24.074Z,74.19
2022-11-09T09:27:56.594Z,74.58
2022-11-09T09:30:29.638Z,73.21
2022-11-09T09:33:02.289Z,72.99
2022-11-09T09:35:34.708Z,72.11
2022-11-09T09:38:07.103Z,72.16
2022-11-09T09:40:50.661Z,71.52
2022-11-09T09:43:28.630Z,70.19
2022-11-09T09:46:05.913Z,70.42
2022-11-09T09:48:43.545Z,69.80
2022-11-09T09:51:21.662Z,69.80
2022-11-09T09:54:01.192Z,68.31
2022-11-09T09:56:38.564Z,68.24
2022-11-09T09:59:19.106Z,68.14
2022-11-09T10:01:52.614Z,67.75
2022-11-09T10:04:32.470Z,67.08
2022-11-09T10:07:12.594Z,66.42
2022-11-09T10:10:00.260Z,66.97
2022-11-09T10:12:46.958Z,67.51
2022-11-09T10:15:25.430Z,67.32
2022-11-09T10:18:17.870Z,66.34
2022-11-09T10:21:06.613Z,65.81
2022-11-09T10:23:49.155Z,65.26
2022-11-09T10:26:27.172Z,65.32
2022-11-09T10:29:15.700Z,64.97
2022-11-09T10:31:51.749Z,64.40
2022-11-09T10:34:29.181Z,63.86
2022-11-09T10:37:09.806Z,63.94
2022-11-09T10:39:49.122Z,62.97
2022-11-09T10:42:44.386Z,62.83
2022-11-09T10:45:37.125Z,62.33
2022-11-09T10:48:33.477Z,62.52
2022-11-09T10:51:40.122Z,61.19
2022-11-09T10:54:34.133Z,59.92
2022-11-09T10:57:25.556Z,59.42
2022-11-09T11:00:18.556Z,59.44
2022-11-09T11:03:15.666Z,59.10
2022-11-09T11:06:14.615Z,58.89
2022-11-09T11:09:16.180Z,58.09
2022-11-09T11:12:14.525Z,58.24
2022-11-09T11:15:21.322Z,57.41
2022-11-09T11:18:22.393Z,57.16
2022-11-09T11:21:18.816Z,56.82
2022-11-09T11:24:17.941Z,57.11
2022-11-09T11:27:16.065Z,56.01
2022-11-09T11:30:11.421Z,56.10
2022-11-09T11:33:05.590Z,56.15
2022-11-09T11:36:04.736Z,55.93
2022-11-09T11:39:02.348Z,55.90
2022-11-09T11:42:10.931Z,55.87
2022-11-09T11:45:38.965Z,55.51
2022-11-09T11:48:54.735Z,54.66
2022-11-09T11:51:53.936Z,54.80
2022-11-09T11:55:01.736Z,54.41
2022-11-09T11:58:08.191Z,54.86
2022-11-09T12:01:12.414Z,54.25
2022-11-09T12:04:29.470Z,54.39
2022-11-09T12:07:27.408Z,53.73
2022-11-09T12:10:31.637Z,53.89
2022-11-09T12:13:55.720Z,53.75
2022-11-09T12:16:52.718Z,53.69
2022-11-09T12:20:03.109Z,53.70
2022-11-09T12:23:11.041Z,53.84
2022-11-09T12:26:16.163Z,53.63
2022-11-09T12:29:19.048Z,53.20
2022-11-09T12:32:20.277Z,53.21
2022-11-09T12:35:27.314Z,52.64
2022-11-09T12:38:21.644Z,53.12
2022-11-09T12:41:16.490Z,53.44
2022-11-09T12:44:17.295Z,53.60
2022-11-09T12:47:15.154Z,54.10
2022-11-09T12:50:11.888Z,54.34
2022-11-09T12:53:04.713Z,54.43
2022-11-09T12:56:00.308Z,53.85
2022-11-09T12:58:51.573Z,53.77
2022-11-09T13:01:50.806Z,53.36
2022-11-09T13:04:55.109Z,52.84
2022-11-09T13:07:49.963Z,52.60
2022-11-09T13:10:41.319Z,52.71
2022-11-09T13:13:32.697Z,53.27
2022-11-09T13:16:35.390Z,54.02
2022-11-09T13:19:53.612Z,53.79
2022-11-09T13:22:59.879Z,53.57
2022-11-09T13:25:52.478Z,53.50
2022-11-09T13:29:05.897Z,53.31
2022-11-09T13:32:23.263Z,53.59
2022-11-09T13:35:44.077Z,53.76
2022-11-09T13:38:36.201Z,54.01
2022-11-09T13:41:42.407Z,55.48
2022-11-09T13:44:37.561Z,54.69
2022-11-09T13:47:36.505Z,55.21
2022-11-09T13:50:29.768Z,55.33
2022-11-09T13:53:29.717Z,55.21
2022-11-09T13:56:31.462Z,56.32
2022-11-09T13:59:27.201Z,56.91
2022-11-09T14:02:20.335Z,56.52
2022-11-09T14:05:27.258Z,56.81
2022-11-09T14:08:22.829Z,57.54
2022-11-09T14:11:38.610Z,58.11
2022-11-09T14:14:51.592Z,58.01
2022-11-09T14:17:56.129Z,58.38
2022-11-09T14:20:54.674Z,58.78
2022-11-09T14:23:45.768Z,59.17
2022-11-09T14:26:37.224Z,59.17
2022-11-09T14:29:32.216Z,59.87
2022-11-09T14:32:26.216Z,59.56
2022-11-09T14:35:22.922Z,59.88
2022-11-09T14:38:18.070Z,60.62
2022-11-09T14:41:19.878Z,60.70
2022-11-09T14:44:17.161Z,60.66
2022-11-09T14:47:15.426Z,61.15
2022-11-09T14:50:14.294Z,61.25
2022-11-09T14:53:06.150Z,61.27
2022-11-09T14:56:02.589Z,61.31
2022-11-09T14:58:56.269Z,61.54
2022-11-09T15:01:59.773Z,62.09
2022-11-09T15:04:55.852Z,62.47
2022-11-09T15:07:48.067Z,62.71
2022-11-09T15:10:39.321Z,63.28
2022-11-09T15:13:32.461Z,64.41
2022-11-09T15:16:27.649Z,64.28
2022-11-09T15:19:23.825Z,64.91
2022-11-09T15:22:47.838Z,65.21
2022-11-09T15:25:53.726Z,65.61
2022-11-09T15:28:46.700Z,66.24
2022-11-09T15:31:37.974Z,66.49
2022-11-09T15:34:38.605Z,66.85
2022-11-09T15:37:46.650Z,66.97
2022-11-09T15:40:37.348Z,67.90
2022-11-09T15:43:28.809Z,68.22
2022-11-09T15:46:22.993Z,68.98
2022-11-09T15:49:16.865Z,69.41
2022-11-09T15:52:11.446Z,70.17
2022-11-09T15:55:02.041Z,70.72
2022-11-09T15:57:52.777Z,71.17
2022-11-09T16:00:44.958Z,71.68
2022-11-09T16:03:36.002Z,71.93
2022-11-09T16:06:27.023Z,72.37
2022-11-09T16:09:18.631Z,72.64
2022-11-09T16:12:10.038Z,72.97
2022-11-09T16:15:00.665Z,73.01
2022-11-09T16:17:52.213Z,73.16
2022-11-09T16:20:43.045Z,73.19
2022-11-09T16:23:33.981Z,73.63
2022-11-09T16:26:25.685Z,73.90
2022-11-09T16:29:16.585Z,74.18
2022-11-09T16:32:07.667Z,74.05
2022-11-09T16:35:23.488Z,74.68
2022-11-09T16:38:10.562Z,75.58
2022-11-09T16:41:03.494Z,75.82
2022-11-09T16:43:56.715Z,76.74
2022-11-09T16:46:48.164Z,77.06
2022-11-09T16:49:39.049Z,77.49
2022-11-09T16:52:29.938Z,77.96
2022-11-09T16:55:21.029Z,77.42
2022-11-09T16:58:12.229Z,77.51
2022-11-09T17:01:11.484Z,78.11
2022-11-09T17:04:03.438Z,78.17
2022-11-09T17:06:55.106Z,77.96
2022-11-09T17:09:46.134Z,77.71
2022-11-09T17:12:37.182Z,78.17
2022-11-09T17:15:28.585Z,77.65
2022-11-09T17:18:20.529Z,78.04
2022-11-09T17:21:13.611Z,78.26
2022-11-09T17:24:05.699Z,78.50
2022-11-09T17:26:56.828Z,78.55
2022-11-09T17:29:47.935Z,78.85
2022-11-09T17:32:40.155Z,79.91
2022-11-09T17:35:35.817Z,79.50
2022-11-09T17:38:28.068Z,79.46
2022-11-09T17:41:20.935Z,79.65
2022-11-09T17:44:11.930Z,79.88
2022-11-09T17:47:03.959Z,80.84
2022-11-09T17:49:54.989Z,80.03
2022-11-09T17:52:47.027Z,79.81
2022-11-09T17:55:38.271Z,80.68
2022-11-09T17:58:29.736Z,81.17
2022-11-09T18:01:21.331Z,79.80
2022-11-09T18:04:12.797Z,80.33
2022-11-09T18:07:04.047Z,80.58
2022-11-09T18:09:55.996Z,80.66
2022-11-09T18:12:48.760Z,80.75
2022-11-09T18:15:39.947Z,80.36
2022-11-09T18:18:31.094Z,79.56
2022-11-09T18:21:24.161Z,79.82
2022-11-09T18:24:15.776Z,80.06
2022-11-09T18:27:07.590Z,79.96
2022-11-09T18:30:01.780Z,79.34
2022-11-09T18:32:53.106Z,79.52
2022-11-09T18:35:44.488Z,79.74
2022-11-09T18:38:36.160Z,79.71
2022-11-09T18:41:28.674Z,78.49
2022-11-09T18:44:20.693Z,78.60
2022-11-09T18:47:15.316Z,78.36
2022-11-09T18:50:07.053Z,78.23
2022-11-09T18:52:58.230Z,78.67
2022-11-09T18:55:51.265Z,79.22
2022-11-09T18:58:42.729Z,79.21
2022-11-09T19:01:34.917Z,79.54
2022-11-09T19:04:26.924Z,80.08
2022-11-09T19:07:18.872Z,79.37
2022-11-09T19:10:10.621Z,79.89
2022-11-09T19:13:07.537Z,79.92
2022-11-09T19:15:58.724Z,80.42
2022-11-09T19:18:53.517Z,80.26
2022-11-09T19:21:47.541Z,79.87
2022-11-09T19:24:38.795Z,79.31
2022-11-09T19:27:31.934Z,80.28
2022-11-09T19:30:27.968Z,79.42
2022-11-09T19:33:20.546Z,80.26
2022-11-09T19:36:31.199Z,79.78
2022-11-09T19:39:22.894Z,80.15
2022-11-09T19:42:16.851Z,80.31
2022-11-09T19:45:11.388Z,80.45
2022-11-09T19:48:03.659Z,79.72
2022-11-09T19:50:55.443Z,80.09
2022-11-09T19:53:52.038Z,78.88
2022-11-09T19:56:43.206Z,79.03
2022-11-09T19:59:37.712Z,79.46
2022-11-09T20:02:31.208Z,79.29
2022-11-09T20:05:22.288Z,79.34
2022-11-09T20:08:14.829Z,79.35
2022-11-09T20:11:08.775Z,79.54
2022-11-09T20:14:02.274Z,80.48
2022-11-09T20:16:53.306Z,80.05
2022-11-09T20:19:44.311Z,80.96
2022-11-09T20:22:37.921Z,82.27
2022-11-09T20:25:29.216Z,81.99
2022-11-09T20:28:21.443Z,82.08
2022-11-09T20:31:15.552Z,82.96
2022-11-09T20:34:08.140Z,82.63
2022-11-09T20:36:59.300Z,83.38
2022-11-09T20:39:50.185Z,84.19
2022-11-09T20:42:41.948Z,83.33
2022-11-09T20:45:36.633Z,83.07
2022-11-09T20:48:52.234Z,82.97
2022-11-09T20:51:39.073Z,83.24
2022-11-09T20:54:29.894Z,82.72
2022-11-09T20:57:21.198Z,82.60
2022-11-09T21:00:13.255Z,83.02
2022-11-09T21:03:05.379Z,83.17
2022-11-09T21:05:59.296Z,83.45
2022-11-09T21:08:52.346Z,83.60
2022-11-09T21:11:57.726Z,84.39
2022-11-09T21:14:48.666Z,85.36
2022-11-09T21:17:40.530Z,85.45
2022-11-09T21:20:32.760Z,86.81
2022-11-09T21:23:41.590Z,87.43
2022-11-09T21:26:50.877Z,87.87
2022-11-09T21:29:50.765Z,87.79
2022-11-09T21:32:41.854Z,87.96
2022-11-09T21:35:33.626Z,87.67
2022-11-09T21:38:24.810Z,87.00
2022-11-09T21:41:36.938Z,86.61
2022-11-09T21:44:29.078Z,86.82
2022-11-09T21:47:20.211Z,86.93
2022-11-09T21:50:12.774Z,87.35
2022-11-09T21:53:11.287Z,86.76
2022-11-09T21:56:02.326Z,86.49
2022-11-09T21:58:53.576Z,85.55
2022-11-09T22:01:44.789Z,85.37
2022-11-09T22:04:35.948Z,85.74
2022-11-09T22:07:27.071Z,85.82
2022-11-09T22:10:18.972Z,85.70
2022-11-09T22:13:31.146Z,85.34
2022-11-09T22:16:23.460Z,85.45
2022-11-09T22:19:32.521Z,86.06
2022-11-09T22:22:23.752Z,85.86
2022-11-09T22:25:14.993Z,84.93
2022-11-09T22:28:06.705Z,85.59
2022-11-09T22:31:00.185Z,85.58
2022-11-09T22:33:51.831Z,85.84
2022-11-09T22:36:42.805Z,85.68
2022-11-09T22:39:33.909Z,86.25
2022-11-09T22:42:24.913Z,86.27
2022-11-09T22:45:16.667Z,86.40
2022-11-09T22:48:07.481Z,86.67
2022-11-09T22:50:58.624Z,86.52
2022-11-09T22:53:50.604Z,86.98
2022-11-09T22:56:41.486Z,87.65
2022-11-09T22:59:32.321Z,88.62
2022-11-09T23:02:24.143Z,88.32
2022-11-09T23:05:15.806Z,87.81
2022-11-09T23:08:07.121Z,88.18
2022-11-09T23:10:58.239Z,88.79
2022-11-09T23:13:49.818Z,88.92
2022-11-09T23:16:40.533Z,88.91
2022-11-09T23:19:31.723Z,88.58
2022-11-09T23:22:22.781Z,87.56
2022-11-09T23:25:32.312Z,87.97
2022-11-09T23:28:23.062Z,87.65
2022-11-09T23:31:15.387Z,88.31
2022-11-09T23:34:10.246Z,88.06
2022-11-09T23:37:02.210Z,88.10
2022-11-09T23:39:53.435Z,87.77
2022-11-09T23:42:44.514Z,87.92
2022-11-09T23:45:36.963Z,87.72
2022-11-09T23:48:28.067Z,88.36
2022-11-09T23:51:19.087Z,89.60
2022-11-09T23:54:10.742Z,89.79
2022-11-09T23:57:01.819Z,88.70
2022-11-09T23:59:52.650Z,89.44
